SBOSBO DRS / EDDC
Speedbird OnlineSpeedbird Online DRS / EDDC

Dresden Airport
09:58 12.6°C

Location Dresden, Germany
Latitude: 51.1328010559082
Longitude: 13.767200469970703
Web Airport Website | Wikipedia
Altitude 230 Meter / 755 Feet
Distance 948 KM / 589 Miles
from London.
Time Zone UTC +2 hours (Europe/Berlin)
Codes IATA: DRS
ICAO: EDDC
Currency £1 equals EUR 1.15
Runways
RunwayLength (m)Surface
042850Concrete
222850Concrete
Radio
TypeDescriptionFrequency
AFISLANGEN INFORMATION125.8
APPMUNCHEN RADAR125.625
ATISATIS118.88
GNDDRESDEN GROUND121.98
RMPDRESDEN APRON121.755
TWRDRESDEN TOWER122.93
Live ATC
METAR EDDC 060720Z AUTO 31008KT 260V340 9999 -RA BKN026 12/10 Q1027 NOSIG
TAF TAF EDDC 060500Z 0606/0706 27009KT 9999 SCT030 BECMG 0614/0617 VRB03KT BECMG 0622/0701 17005KT
Weather As Of 06 Oct 2022 09:58
Description Broken clouds
Wind 15 km/h from North-West (310°)
Cloud Cover 75%
Precipitation Rain: none, Snow: none
Sunrise 07:12
Sunset 18:33
Rotations During the last 90 days there were
1 flights from LHR
1 flights to PRG


© 2017-2022 Speedbird Online